createdAt,value
2019-01-06T00:00:39.824Z,7.10
2019-01-06T00:03:24.667Z,7.10
2019-01-06T00:06:24.976Z,7.00
2019-01-06T00:09:25.205Z,7.10
2019-01-06T00:12:24.890Z,7.10
2019-01-06T00:20:56.688Z,6.90
2019-01-06T00:23:38.583Z,6.90
2019-01-06T00:26:21.260Z,6.90
2019-01-06T00:29:21.066Z,6.90
2019-01-06T00:32:03.037Z,6.90
2019-01-06T00:35:03.010Z,6.80
2019-01-06T00:43:48.642Z,6.70
2019-01-06T00:46:31.199Z,6.70
2019-01-06T00:49:16.637Z,6.60
2019-01-06T00:52:16.213Z,6.70
2019-01-06T00:55:15.802Z,6.70
2019-01-06T00:58:01.284Z,6.80
2019-01-06T01:00:46.480Z,6.80
2019-01-06T01:03:46.853Z,6.70
2019-01-06T01:09:40.687Z,6.70
2019-01-06T01:15:33.571Z,6.70
2019-01-06T01:18:33.321Z,6.70
2019-01-06T01:21:15.223Z,6.70
2019-01-06T01:24:15.413Z,6.60
2019-01-06T01:26:58.080Z,6.70
2019-01-06T01:29:58.462Z,6.60
2019-01-06T01:32:58.120Z,6.60
2019-01-06T01:35:45.909Z,6.80
2019-01-06T01:38:32.020Z,6.70
2019-01-06T01:41:39.076Z,6.70
2019-01-06T01:44:24.524Z,6.50
2019-01-06T01:47:24.072Z,6.60
2019-01-06T01:50:06.908Z,6.60
2019-01-06T01:53:07.214Z,6.50
2019-01-06T01:55:49.942Z,6.50
2019-01-06T01:58:49.408Z,6.60
2019-01-06T02:01:32.169Z,6.70
2019-01-06T02:04:32.209Z,6.80
2019-01-06T02:07:32.051Z,6.80
2019-01-06T02:10:31.731Z,6.80
2019-01-06T02:13:31.306Z,6.80
2019-01-06T02:16:30.745Z,6.80
2019-01-06T02:19:15.524Z,6.90
2019-01-06T02:22:00.555Z,6.90
2019-01-06T02:25:00.705Z,7.00
2019-01-06T02:27:43.456Z,7.00
2019-01-06T02:30:43.627Z,7.00
2019-01-06T02:36:37.493Z,7.00
2019-01-06T02:42:44.374Z,7.10
2019-01-06T02:45:43.834Z,7.10
2019-01-06T02:48:25.689Z,7.20
2019-01-06T02:51:25.982Z,7.20
2019-01-06T02:54:07.989Z,7.20
2019-01-06T02:57:08.269Z,7.30
2019-01-06T02:59:54.037Z,7.30
2019-01-06T03:05:34.102Z,7.40
2019-01-06T03:08:33.966Z,7.40
2019-01-06T03:11:33.627Z,7.40
2019-01-06T03:14:19.187Z,7.40
2019-01-06T03:20:09.393Z,7.30
2019-01-06T03:22:51.759Z,7.30
2019-01-06T03:25:34.639Z,7.40
2019-01-06T03:28:35.254Z,7.30
2019-01-06T03:31:18.109Z,7.30
2019-01-06T03:34:18.376Z,7.40
2019-01-06T03:37:18.479Z,7.50
2019-01-06T03:40:19.053Z,7.60
2019-01-06T03:46:09.375Z,7.50
2019-01-06T03:49:09.239Z,7.50
2019-01-06T03:51:51.169Z,7.50
2019-01-06T03:57:57.130Z,7.50
2019-01-06T04:01:04.373Z,7.40
2019-01-06T04:04:04.722Z,7.40
2019-01-06T04:13:04.959Z,7.20
2019-01-06T04:15:49.999Z,7.30
2019-01-06T04:21:57.004Z,7.30
2019-01-06T04:24:38.970Z,7.10
2019-01-06T04:27:24.424Z,7.00
2019-01-06T04:30:09.996Z,7.20
2019-01-06T04:32:55.605Z,7.10
2019-01-06T04:35:55.928Z,7.10
2019-01-06T04:38:56.007Z,7.10
2019-01-06T04:41:40.721Z,6.80
2019-01-06T04:44:40.269Z,6.70
2019-01-06T04:47:23.425Z,6.80
2019-01-06T04:53:32.301Z,6.70
2019-01-06T04:56:14.165Z,6.90
2019-01-06T05:01:50.947Z,7.00
2019-01-06T05:07:44.733Z,7.00
2019-01-06T05:10:26.949Z,6.80
2019-01-06T05:13:27.143Z,6.80
2019-01-06T05:16:14.869Z,6.80
2019-01-06T05:22:22.951Z,6.80
2019-01-06T05:25:29.984Z,6.80
2019-01-06T05:28:30.149Z,6.50
2019-01-06T05:31:15.516Z,6.50
2019-01-06T05:34:15.034Z,6.40
2019-01-06T05:37:14.772Z,6.50
2019-01-06T05:39:57.281Z,6.50
2019-01-06T05:42:57.576Z,6.60
2019-01-06T05:45:40.085Z,6.60
2019-01-06T05:51:33.554Z,6.90
2019-01-06T05:54:15.444Z,6.60
2019-01-06T05:56:57.717Z,6.30
2019-01-06T05:59:43.064Z,6.40
2019-01-06T06:02:43.295Z,6.60
2019-01-06T06:05:42.796Z,6.60
2019-01-06T06:08:42.644Z,6.50
2019-01-06T06:11:42.112Z,6.40
2019-01-06T06:14:41.649Z,6.50
2019-01-06T06:17:41.175Z,6.70
2019-01-06T06:26:29.229Z,7.00
2019-01-06T06:29:11.913Z,6.70
2019-01-06T06:32:11.389Z,6.70
2019-01-06T06:35:10.811Z,6.60
2019-01-06T06:38:10.740Z,6.60
2019-01-06T06:40:52.707Z,6.60
2019-01-06T06:43:53.072Z,6.60
2019-01-06T06:46:37.985Z,6.70
2019-01-06T06:49:23.733Z,6.70
2019-01-06T06:52:23.974Z,6.50
2019-01-06T06:55:08.550Z,6.60
2019-01-06T07:01:29.432Z,6.60
2019-01-06T07:07:19.958Z,6.60
2019-01-06T07:10:00.331Z,6.40
2019-01-06T07:12:42.803Z,6.20
2019-01-06T07:18:50.249Z,6.60
2019-01-06T07:21:33.420Z,6.50
2019-01-06T07:24:33.163Z,6.30
2019-01-06T07:27:15.264Z,6.20
2019-01-06T07:30:15.155Z,6.40
2019-01-06T07:32:57.265Z,6.30
2019-01-06T07:35:57.410Z,6.30
2019-01-06T07:38:56.955Z,6.40
2019-01-06T07:41:57.304Z,6.70
2019-01-06T07:44:39.440Z,6.60
2019-01-06T07:47:22.087Z,6.40
2019-01-06T07:53:03.406Z,6.30
2019-01-06T07:56:10.424Z,6.60
2019-01-06T07:58:55.503Z,6.70
2019-01-06T08:01:35.875Z,6.80
2019-01-06T08:04:21.310Z,6.90
2019-01-06T08:07:04.009Z,6.90
2019-01-06T08:12:57.619Z,7.00
2019-01-06T08:15:57.039Z,7.00
2019-01-06T08:18:56.622Z,7.10
2019-01-06T08:21:39.899Z,7.20
2019-01-06T08:24:22.045Z,7.30
2019-01-06T08:27:22.008Z,7.40
2019-01-06T08:30:21.655Z,7.10
2019-01-06T08:33:08.151Z,7.20
2019-01-06T08:36:08.047Z,7.10
2019-01-06T08:38:53.644Z,7.10
2019-01-06T08:41:53.997Z,7.10
2019-01-06T08:44:36.642Z,7.20
2019-01-06T08:50:44.144Z,7.40
2019-01-06T08:53:43.659Z,7.40
2019-01-06T08:56:43.061Z,7.30
2019-01-06T09:02:20.923Z,7.30
2019-01-06T09:05:06.175Z,7.40
2019-01-06T09:07:48.936Z,7.40
2019-01-06T09:10:30.896Z,7.30
2019-01-06T09:13:16.353Z,7.40
2019-01-06T09:16:15.921Z,7.60
2019-01-06T09:19:15.675Z,7.70
2019-01-06T09:22:15.281Z,7.70
2019-01-06T09:25:20.874Z,7.90
2019-01-06T09:28:02.894Z,8.10
2019-01-06T09:31:03.260Z,8.30
2019-01-06T09:34:02.757Z,8.60
2019-01-06T09:39:55.257Z,8.60
2019-01-06T09:45:35.419Z,8.50
2019-01-06T09:48:17.727Z,8.50
2019-01-06T09:51:03.236Z,8.60
2019-01-06T09:54:02.850Z,8.60
2019-01-06T09:57:03.234Z,8.50
2019-01-06T09:59:48.037Z,8.50
2019-01-06T10:02:48.894Z,8.60
2019-01-06T10:05:49.223Z,8.30
2019-01-06T10:08:48.843Z,8.20
2019-01-06T10:14:38.112Z,8.30
2019-01-06T10:17:23.668Z,8.30
2019-01-06T10:20:23.967Z,8.40
2019-01-06T10:23:09.054Z,8.50
2019-01-06T10:25:51.665Z,8.20
2019-01-06T10:28:51.893Z,8.10
2019-01-06T10:31:51.356Z,8.10
2019-01-06T10:37:40.778Z,8.30
2019-01-06T10:40:22.729Z,8.10
2019-01-06T10:43:05.402Z,8.20
2019-01-06T10:46:05.290Z,8.30
2019-01-06T10:48:50.383Z,8.30
2019-01-06T10:51:49.869Z,8.20
2019-01-06T10:54:35.999Z,8.10
2019-01-06T10:57:42.987Z,8.20
2019-01-06T11:03:37.281Z,8.20
2019-01-06T11:06:19.189Z,8.40
2019-01-06T11:09:01.760Z,8.20
2019-01-06T11:11:44.268Z,8.30
2019-01-06T11:17:51.483Z,7.90
2019-01-06T11:20:51.046Z,8.00
2019-01-06T11:23:51.372Z,8.00
2019-01-06T11:26:33.285Z,8.30
2019-01-06T11:29:33.484Z,8.30
2019-01-06T11:32:15.618Z,8.40
2019-01-06T11:35:15.346Z,8.30
2019-01-06T11:38:14.897Z,8.40
2019-01-06T11:41:14.506Z,8.40
2019-01-06T11:44:14.150Z,8.30
2019-01-06T11:47:14.550Z,8.50
2019-01-06T11:50:14.466Z,8.50
2019-01-06T11:52:57.261Z,8.50
2019-01-06T11:55:57.596Z,8.30
2019-01-06T11:58:40.981Z,8.30
2019-01-06T12:01:47.980Z,8.40
2019-01-06T12:04:48.042Z,8.40
2019-01-06T12:07:47.558Z,8.60
2019-01-06T12:10:47.231Z,8.70
2019-01-06T12:13:46.925Z,8.30
2019-01-06T12:16:46.915Z,8.30
2019-01-06T12:19:47.274Z,8.40
2019-01-06T12:22:46.884Z,8.50
2019-01-06T12:25:46.729Z,8.60
2019-01-06T12:28:46.757Z,8.40
2019-01-06T12:31:46.330Z,8.40
2019-01-06T12:34:45.758Z,8.40
2019-01-06T12:43:46.197Z,8.40
2019-01-06T12:46:31.299Z,8.50
2019-01-06T12:49:13.707Z,8.50
2019-01-06T12:51:58.246Z,8.40
2019-01-06T12:54:58.141Z,8.60
2019-01-06T12:57:57.770Z,8.70
2019-01-06T13:04:05.102Z,8.70
2019-01-06T13:06:47.106Z,8.80
2019-01-06T13:09:32.789Z,8.90
2019-01-06T13:12:32.428Z,8.80
2019-01-06T13:15:31.920Z,8.80
2019-01-06T13:18:14.006Z,8.70
2019-01-06T13:21:14.292Z,8.70
2019-01-06T13:24:13.806Z,8.60
2019-01-06T13:27:13.453Z,8.40
2019-01-06T13:30:01.139Z,8.70
2019-01-06T13:32:43.033Z,8.70
2019-01-06T13:35:43.233Z,8.80
2019-01-06T13:38:25.328Z,8.70
2019-01-06T13:44:05.678Z,8.50
2019-01-06T13:46:53.336Z,8.50
2019-01-06T13:55:29.961Z,8.70
2019-01-06T13:58:12.811Z,8.80
2019-01-06T14:01:13.016Z,8.80
2019-01-06T14:03:55.257Z,8.80
2019-01-06T14:06:40.711Z,8.80
2019-01-06T14:09:26.231Z,8.80
2019-01-06T14:12:11.537Z,8.80
2019-01-06T14:14:56.399Z,8.80
2019-01-06T14:17:56.342Z,8.80
2019-01-06T14:20:55.910Z,8.60
2019-01-06T14:23:55.659Z,8.60
2019-01-06T14:26:43.296Z,8.60
2019-01-06T14:32:20.806Z,8.50
2019-01-06T14:35:03.464Z,8.50
2019-01-06T14:37:46.068Z,8.40
2019-01-06T14:40:45.605Z,8.30
2019-01-06T14:43:45.972Z,8.40
2019-01-06T14:46:45.553Z,8.30
2019-01-06T14:49:45.223Z,8.40
2019-01-06T14:52:45.408Z,8.50
2019-01-06T14:55:45.848Z,8.40
2019-01-06T14:58:31.255Z,8.50
2019-01-06T15:01:14.039Z,8.50
2019-01-06T15:03:56.913Z,8.50
2019-01-06T15:06:56.473Z,8.60
2019-01-06T15:09:56.642Z,8.40
2019-01-06T15:12:56.250Z,8.40
2019-01-06T15:15:40.860Z,8.50
2019-01-06T15:21:30.209Z,8.60
2019-01-06T15:24:30.369Z,8.60
2019-01-06T15:30:09.105Z,8.40
2019-01-06T15:32:55.014Z,8.30
2019-01-06T15:35:55.105Z,8.10
2019-01-06T15:38:37.271Z,8.30
2019-01-06T15:41:37.590Z,8.20
2019-01-06T15:47:30.381Z,8.30
2019-01-06T15:50:29.872Z,8.40
2019-01-06T15:53:29.416Z,8.40
2019-01-06T15:56:14.422Z,8.20
2019-01-06T15:59:14.705Z,8.10
2019-01-06T16:01:59.354Z,8.20
2019-01-06T16:04:44.596Z,8.00
2019-01-06T16:07:44.175Z,8.10
2019-01-06T16:10:24.595Z,8.10
2019-01-06T16:13:31.604Z,7.90
2019-01-06T16:16:31.477Z,7.70
2019-01-06T16:19:13.574Z,7.50
2019-01-06T16:21:56.922Z,7.40
2019-01-06T16:25:03.950Z,7.30
2019-01-06T16:28:03.832Z,7.30
2019-01-06T16:31:04.012Z,7.40
2019-01-06T16:34:03.573Z,7.50
2019-01-06T16:37:03.411Z,7.30
2019-01-06T16:40:03.848Z,7.10
2019-01-06T16:42:46.025Z,7.20
2019-01-06T16:45:28.425Z,7.10
2019-01-06T16:51:22.907Z,7.30
2019-01-06T16:54:08.819Z,7.50
2019-01-06T16:57:09.191Z,7.70
2019-01-06T16:59:54.002Z,7.80
2019-01-06T17:02:54.445Z,7.80
2019-01-06T17:05:36.456Z,7.60
2019-01-06T17:11:30.757Z,7.60
2019-01-06T17:14:12.811Z,7.70
2019-01-06T17:17:12.450Z,7.60
2019-01-06T17:20:19.525Z,7.60
2019-01-06T17:23:04.552Z,7.50
2019-01-06T17:26:06.106Z,7.70
2019-01-06T17:29:08.039Z,7.80
2019-01-06T17:32:07.741Z,7.70
2019-01-06T17:35:07.266Z,7.80
2019-01-06T17:37:52.042Z,7.90
2019-01-06T17:40:53.368Z,7.90
2019-01-06T17:43:38.456Z,7.90
2019-01-06T17:46:37.956Z,8.00
2019-01-06T17:49:38.141Z,7.90
2019-01-06T17:52:37.641Z,7.90
2019-01-06T17:55:38.015Z,8.00
2019-01-06T17:58:37.508Z,7.90
2019-01-06T18:01:36.972Z,7.80
2019-01-06T18:04:36.748Z,8.00
2019-01-06T18:13:22.418Z,8.10
2019-01-06T18:16:05.101Z,8.10
2019-01-06T18:21:40.814Z,8.20
2019-01-06T18:24:40.821Z,8.10
2019-01-06T18:27:40.311Z,8.10
2019-01-06T18:30:39.843Z,8.10
2019-01-06T18:33:40.208Z,8.20
2019-01-06T18:36:22.258Z,8.10
2019-01-06T18:39:21.769Z,8.00
2019-01-06T18:42:21.456Z,7.90
2019-01-06T18:45:09.229Z,7.80
2019-01-06T18:47:54.613Z,7.80
2019-01-06T18:50:55.489Z,8.00
2019-01-06T18:53:54.933Z,7.90
2019-01-06T18:56:40.552Z,8.00
2019-01-06T18:59:25.770Z,8.10
2019-01-06T19:02:10.316Z,8.00
2019-01-06T19:04:57.984Z,7.90
2019-01-06T19:13:44.425Z,7.70
2019-01-06T19:22:45.567Z,7.50
2019-01-06T19:25:45.297Z,7.60
2019-01-06T19:28:45.714Z,7.80
2019-01-06T19:34:42.836Z,7.60
2019-01-06T19:37:25.140Z,7.70
2019-01-06T19:40:07.917Z,7.60
2019-01-06T19:42:50.595Z,7.50
2019-01-06T19:45:51.028Z,7.70
2019-01-06T19:48:51.253Z,7.40
2019-01-06T19:51:51.407Z,7.50
2019-01-06T19:54:51.726Z,7.50
2019-01-06T19:57:51.266Z,7.30
2019-01-06T20:06:37.886Z,7.60
2019-01-06T20:09:38.195Z,7.30
2019-01-06T20:12:20.063Z,7.20
2019-01-06T20:15:19.974Z,7.30
2019-01-06T20:18:19.770Z,7.40
2019-01-06T20:21:19.294Z,7.30
2019-01-06T20:27:00.642Z,7.20
2019-01-06T20:33:08.686Z,7.00
2019-01-06T20:36:15.709Z,6.80
2019-01-06T20:39:15.230Z,6.90
2019-01-06T20:41:58.920Z,7.10
2019-01-06T20:44:59.171Z,7.10
2019-01-06T20:48:00.689Z,7.00
2019-01-06T20:51:00.841Z,7.30
2019-01-06T20:54:00.608Z,7.30
2019-01-06T20:57:00.269Z,7.10
2019-01-06T21:02:49.749Z,7.20
2019-01-06T21:05:32.382Z,7.30
2019-01-06T21:08:15.157Z,7.30
2019-01-06T21:10:57.112Z,7.30
2019-01-06T21:13:56.620Z,7.10
2019-01-06T21:16:41.543Z,7.20
2019-01-06T21:19:27.185Z,7.30
2019-01-06T21:22:26.997Z,7.20
2019-01-06T21:25:26.446Z,7.20
2019-01-06T21:28:25.988Z,7.00
2019-01-06T21:31:25.614Z,6.80
2019-01-06T21:34:25.328Z,6.70
2019-01-06T21:37:10.394Z,6.60
2019-01-06T21:43:00.756Z,6.50
2019-01-06T21:46:00.198Z,6.50
2019-01-06T21:48:46.018Z,6.90
2019-01-06T21:51:28.372Z,7.00
2019-01-06T21:54:11.178Z,6.70
2019-01-06T21:57:11.412Z,6.70
2019-01-06T21:59:57.149Z,6.80
2019-01-06T22:02:57.213Z,6.70
2019-01-06T22:05:39.260Z,6.70
2019-01-06T22:08:23.877Z,6.70
2019-01-06T22:11:05.859Z,6.60
2019-01-06T22:17:07.947Z,6.40
2019-01-06T22:20:14.981Z,6.50
2019-01-06T22:22:57.417Z,6.70
2019-01-06T22:25:39.669Z,6.70
2019-01-06T22:28:25.452Z,6.80
2019-01-06T22:31:25.671Z,6.80
2019-01-06T22:34:08.585Z,7.20
2019-01-06T22:37:15.772Z,7.30
2019-01-06T22:43:05.288Z,7.20
2019-01-06T22:48:54.757Z,7.10
2019-01-06T22:51:55.133Z,7.20
2019-01-06T22:54:55.140Z,7.00
2019-01-06T22:57:37.879Z,6.90
2019-01-06T23:00:23.700Z,6.90
2019-01-06T23:03:08.867Z,6.90
2019-01-06T23:06:08.356Z,6.80
2019-01-06T23:08:51.242Z,6.80
2019-01-06T23:11:33.644Z,7.00
2019-01-06T23:14:16.338Z,6.90
2019-01-06T23:20:11.135Z,7.20
2019-01-06T23:22:53.233Z,7.10
2019-01-06T23:25:53.147Z,6.80
2019-01-06T23:31:55.117Z,7.30
2019-01-06T23:34:40.980Z,7.10
2019-01-06T23:37:26.156Z,6.80
2019-01-06T23:40:26.359Z,6.60
2019-01-06T23:43:11.268Z,6.70
2019-01-06T23:45:53.534Z,7.10
2019-01-06T23:48:55.145Z,7.20
2019-01-06T23:52:02.218Z,7.00
2019-01-06T23:54:44.511Z,6.80
2019-01-06T23:57:44.874Z,7.00
